Capitol Logistics 798


SCEL
Arturo Merino Benitez International Airport
Santiago, CL
KMIA
Miami International Airport
Miami, US

Activity Log

Date Flight Route Aircraft Duration
01/02/2020 CPX798 IKBIX Y183 PEAKY DVALL CURSO5 B744 8h 14m
10/27/2019 CPX798 IKBIX Y183 PEAKY DVALL CURSO5 B744 8h 50m

Route Details

Aircraft Information
Primary: Boeing 747-400BCF
Backup: Boeing 777-200LRF
Route Data
Distance: 3625nm
Sched. Duration: 7h 40m
Avg. Duration: 8h 32m (+92m)
Times Flown: 2
Recm'd Route: IKBIX Y183 PEAKY DVALL CURSO5
Planned Altitude: 32,000ft
Origin Wx: SCEL 271700Z 19007KT 150V240 CAVOK 30/03 Q1015 NOSIG
Dest. Wx: KMIA 271653Z 33010G18KT 300V360 10SM FEW030 SCT140 BKN160 BKN180 19/07 A3017 RMK AO2 SLP214 T01890067
Notes:

Financial History
Total Freight: 411,308lbs
Average Load: 205,654lbs/flt
Fuel Used: 401,359lbs
Avg. Fuel Used: 200,680lbs/flt
Fuel Expense: $321,087
Avg. Fuel Expense: $160,544
Avg. Fuel Cost: $0.80/lbs
Total Gross Income: $1,162,266
Pilot Pay: $488
Total Expenses: $125,629
Total Revenue: $711,331
Average Revenue: $581,133.06